createdAt,value
2024-03-05T00:00:32.650Z,19.77
2024-03-05T00:02:59.595Z,18.50
2024-03-05T00:05:26.613Z,19.13
2024-03-05T00:07:54.556Z,18.73
2024-03-05T00:10:21.622Z,19.17
2024-03-05T00:12:48.601Z,19.53
2024-03-05T00:15:17.019Z,18.23
2024-03-05T00:17:44.377Z,18.60
2024-03-05T00:20:19.893Z,18.83
2024-03-05T00:22:51.721Z,19.20
2024-03-05T00:25:19.540Z,18.60
2024-03-05T00:27:46.885Z,17.63
2024-03-05T00:30:15.327Z,18.87
2024-03-05T00:32:42.702Z,19.30
2024-03-05T00:35:11.009Z,18.87
2024-03-05T00:37:39.164Z,19.07
2024-03-05T00:40:09.873Z,16.80
2024-03-05T00:42:37.633Z,16.80
2024-03-05T00:45:09.039Z,17.80
2024-03-05T00:47:37.332Z,16.53
2024-03-05T00:50:05.987Z,18.97
2024-03-05T00:52:33.719Z,18.70
2024-03-05T00:55:01.654Z,20.17
2024-03-05T00:57:30.166Z,18.43
2024-03-05T00:59:57.731Z,20.00
2024-03-05T01:02:24.984Z,18.40
2024-03-05T01:04:54.582Z,19.27
2024-03-05T01:07:22.271Z,18.20
2024-03-05T01:09:50.612Z,18.40
2024-03-05T01:12:18.012Z,18.87
2024-03-05T01:14:45.900Z,18.87
2024-03-05T01:17:13.915Z,18.33
2024-03-05T01:19:41.219Z,18.53
2024-03-05T01:22:08.406Z,19.17
2024-03-05T01:24:35.600Z,19.00
2024-03-05T01:27:02.641Z,18.10
2024-03-05T01:29:31.939Z,18.63
2024-03-05T01:32:01.249Z,18.30
2024-03-05T01:34:31.355Z,18.63
2024-03-05T01:36:58.917Z,19.03
2024-03-05T01:39:28.108Z,18.07
2024-03-05T01:41:56.508Z,17.87
2024-03-05T01:44:24.249Z,18.40
2024-03-05T01:46:55.083Z,18.30
2024-03-05T01:49:23.063Z,18.03
2024-03-05T01:51:50.630Z,18.23
2024-03-05T01:54:19.419Z,17.70
2024-03-05T01:56:55.494Z,19.20
2024-03-05T01:59:23.028Z,18.50
2024-03-05T02:01:50.303Z,18.37
2024-03-05T02:04:18.522Z,18.27
2024-03-05T02:06:45.907Z,19.23
2024-03-05T02:09:12.949Z,18.70
2024-03-05T02:11:52.248Z,18.83
2024-03-05T02:14:24.327Z,19.23
2024-03-05T02:16:51.688Z,19.57
2024-03-05T02:19:18.749Z,17.93
2024-03-05T02:21:46.091Z,19.20
2024-03-05T02:24:13.001Z,19.53
2024-03-05T02:26:40.289Z,19.00
2024-03-05T02:29:10.226Z,20.58
2024-03-05T02:31:37.347Z,19.90
2024-03-05T02:34:06.106Z,19.80
2024-03-05T02:36:33.178Z,20.30
2024-03-05T02:39:00.064Z,19.90
2024-03-05T02:41:26.861Z,20.00
2024-03-05T02:43:53.726Z,19.63
2024-03-05T02:46:20.721Z,19.33
2024-03-05T02:48:47.709Z,19.77
2024-03-05T02:51:14.863Z,20.07
2024-03-05T02:53:41.652Z,20.63
2024-03-05T02:56:11.224Z,19.97
2024-03-05T02:58:38.334Z,19.20
2024-03-05T03:01:05.259Z,20.43
2024-03-05T03:03:32.177Z,20.70
2024-03-05T03:05:58.944Z,21.33
2024-03-05T03:08:25.778Z,19.50
2024-03-05T03:10:52.669Z,20.27
2024-03-05T03:13:19.605Z,19.93
2024-03-05T03:15:48.662Z,18.60
2024-03-05T03:18:15.668Z,19.77
2024-03-05T03:20:42.869Z,18.67
2024-03-05T03:23:09.658Z,18.20
2024-03-05T03:25:38.074Z,17.40
2024-03-05T03:28:09.090Z,19.90
2024-03-05T03:30:35.921Z,19.97
2024-03-05T03:33:05.831Z,20.27
2024-03-05T03:35:33.330Z,19.30
2024-03-05T03:38:00.233Z,21.03
2024-03-05T03:40:27.229Z,19.97
2024-03-05T03:42:54.113Z,19.53
2024-03-05T03:45:21.239Z,19.37
2024-03-05T03:47:48.600Z,20.73
2024-03-05T03:50:17.040Z,19.80
2024-03-05T03:52:44.507Z,20.00
2024-03-05T03:55:11.422Z,19.77
2024-03-05T03:57:38.469Z,20.60
2024-03-05T04:00:09.376Z,18.57
2024-03-05T04:02:41.749Z,19.20
2024-03-05T04:05:10.844Z,19.07
2024-03-05T04:07:38.013Z,20.43
2024-03-05T04:10:07.427Z,20.97
2024-03-05T04:12:35.308Z,21.23
2024-03-05T04:15:02.255Z,21.63
2024-03-05T04:17:29.298Z,20.93
2024-03-05T04:19:57.473Z,20.70
2024-03-05T04:22:24.807Z,19.50
2024-03-05T04:24:56.601Z,20.97
2024-03-05T04:27:25.336Z,21.87
2024-03-05T04:29:57.824Z,21.23
2024-03-05T04:32:28.630Z,19.83
2024-03-05T04:35:02.068Z,19.90
2024-03-05T04:37:32.052Z,20.43
2024-03-05T04:39:59.616Z,21.50
2024-03-05T04:42:27.180Z,21.53
2024-03-05T04:44:56.753Z,21.23
2024-03-05T04:47:26.147Z,20.47
2024-03-05T04:49:53.325Z,19.90
2024-03-05T04:52:20.301Z,21.33
2024-03-05T04:54:47.140Z,20.40
2024-03-05T04:57:14.283Z,22.07
2024-03-05T04:59:41.837Z,21.77
2024-03-05T05:02:08.707Z,22.63
2024-03-05T05:04:38.855Z,20.67
2024-03-05T05:07:08.968Z,22.27
2024-03-05T05:09:37.545Z,22.77
2024-03-05T05:12:04.584Z,23.03
2024-03-05T05:14:32.375Z,21.63
2024-03-05T05:17:01.004Z,21.87
2024-03-05T05:19:27.870Z,22.57
2024-03-05T05:21:54.707Z,20.90
2024-03-05T05:24:21.549Z,22.37
2024-03-05T05:26:48.466Z,22.43
2024-03-05T05:29:23.979Z,22.57
2024-03-05T05:32:00.778Z,22.30
2024-03-05T05:34:27.686Z,20.67
2024-03-05T05:36:54.843Z,21.43
2024-03-05T05:39:25.854Z,21.87
2024-03-05T05:41:54.327Z,20.77
2024-03-05T05:44:21.575Z,22.73
2024-03-05T05:46:48.402Z,21.53
2024-03-05T05:49:21.012Z,20.17
2024-03-05T05:51:48.570Z,20.93
2024-03-05T05:54:16.570Z,20.33
2024-03-05T05:56:44.802Z,21.43
2024-03-05T05:59:12.804Z,21.30
2024-03-05T06:01:39.786Z,18.93
2024-03-05T06:04:10.289Z,21.57
2024-03-05T06:06:40.279Z,19.17
2024-03-05T06:09:10.697Z,19.57
2024-03-05T06:11:38.529Z,21.43
2024-03-05T06:14:07.724Z,20.93
2024-03-05T06:16:34.996Z,20.40
2024-03-05T06:19:02.383Z,19.50
2024-03-05T06:21:29.212Z,19.77
2024-03-05T06:23:56.329Z,20.13
2024-03-05T06:26:23.157Z,19.20
2024-03-05T06:28:50.040Z,19.23
2024-03-05T06:31:17.225Z,19.93
2024-03-05T06:33:45.244Z,19.47
2024-03-05T06:36:13.598Z,18.77
2024-03-05T06:38:40.847Z,18.20
2024-03-05T06:41:10.895Z,17.90
2024-03-05T06:43:38.699Z,17.70
2024-03-05T06:46:06.120Z,17.57
2024-03-05T06:48:34.026Z,17.80
2024-03-05T06:51:06.171Z,16.63
2024-03-05T06:53:51.556Z,17.00
2024-03-05T06:56:36.992Z,17.10
2024-03-05T06:59:05.084Z,16.80
2024-03-05T07:01:33.862Z,17.30
2024-03-05T07:04:07.775Z,15.77
2024-03-05T07:06:35.398Z,15.30
2024-03-05T07:09:02.824Z,15.40
2024-03-05T07:11:30.685Z,14.33
2024-03-05T07:13:58.969Z,15.20
2024-03-05T07:16:26.119Z,14.67
2024-03-05T07:18:56.776Z,14.63
2024-03-05T07:21:25.367Z,14.40
2024-03-05T07:23:54.826Z,14.23
2024-03-05T07:26:22.828Z,13.77
2024-03-05T07:28:49.888Z,14.03
2024-03-05T07:31:18.649Z,12.90
2024-03-05T07:33:49.090Z,13.27
2024-03-05T07:36:19.053Z,12.83
2024-03-05T07:38:46.011Z,13.13
2024-03-05T07:41:18.351Z,13.10
2024-03-05T07:43:53.573Z,12.60
2024-03-05T07:46:20.855Z,12.37
2024-03-05T07:48:47.841Z,12.13
2024-03-05T07:51:21.472Z,11.83
2024-03-05T07:53:51.779Z,12.50
2024-03-05T07:56:18.635Z,11.40
2024-03-05T07:58:45.935Z,11.07
2024-03-05T08:01:13.050Z,11.00
2024-03-05T08:03:42.358Z,10.50
2024-03-05T08:06:09.257Z,10.37
2024-03-05T08:08:36.005Z,10.53
2024-03-05T08:11:03.049Z,9.77
2024-03-05T08:13:30.101Z,8.83
2024-03-05T08:15:57.048Z,9.90
2024-03-05T08:18:23.841Z,9.97
2024-03-05T08:20:51.214Z,9.30
2024-03-05T08:23:18.063Z,8.53
2024-03-05T08:25:49.338Z,8.43
2024-03-05T08:28:16.253Z,8.27
2024-03-05T08:30:43.906Z,7.37
2024-03-05T08:33:11.187Z,7.13
2024-03-05T08:35:38.272Z,7.50
2024-03-05T08:38:05.215Z,6.90
2024-03-05T08:40:36.856Z,6.80
2024-03-05T08:43:05.139Z,7.20
2024-03-05T08:45:32.845Z,6.77
2024-03-05T08:48:00.418Z,6.60
2024-03-05T08:50:30.479Z,6.63
2024-03-05T08:52:59.506Z,6.43
2024-03-05T08:55:27.680Z,6.30
2024-03-05T08:57:55.678Z,6.27
2024-03-05T09:00:33.335Z,6.37
2024-03-05T09:03:09.582Z,5.97
2024-03-05T09:05:37.175Z,5.90
2024-03-05T09:08:06.361Z,5.60
2024-03-05T09:10:33.618Z,6.50
2024-03-05T09:13:01.169Z,5.40
2024-03-05T09:15:28.036Z,5.77
2024-03-05T09:17:55.020Z,5.63
2024-03-05T09:20:22.046Z,5.63
2024-03-05T09:22:49.014Z,5.40
2024-03-05T09:25:16.926Z,5.20
2024-03-05T09:27:46.500Z,4.53
2024-03-05T09:30:16.593Z,5.80
2024-03-05T09:32:45.504Z,5.57
2024-03-05T09:35:14.102Z,5.27
2024-03-05T09:37:45.604Z,4.50
2024-03-05T09:40:19.053Z,4.77
2024-03-05T09:42:46.714Z,4.70
2024-03-05T09:45:18.695Z,3.40
2024-03-05T09:47:48.568Z,3.90
2024-03-05T09:50:18.039Z,3.53
2024-03-05T09:52:49.640Z,4.20
2024-03-05T09:55:18.820Z,4.47
2024-03-05T09:57:49.655Z,4.60
2024-03-05T10:00:18.787Z,4.77
2024-03-05T10:02:53.012Z,4.50
2024-03-05T10:05:21.363Z,5.30
2024-03-05T10:07:49.789Z,4.53
2024-03-05T10:10:22.560Z,5.07
2024-03-05T10:12:52.725Z,5.40
2024-03-05T10:15:23.858Z,5.60
2024-03-05T10:17:54.006Z,5.97
2024-03-05T10:20:47.884Z,5.47
2024-03-05T10:23:16.629Z,5.03
2024-03-05T10:25:44.048Z,3.70
2024-03-05T10:28:11.179Z,3.93
2024-03-05T10:30:39.157Z,3.40
2024-03-05T10:33:11.448Z,3.10
2024-03-05T10:35:39.702Z,2.83
2024-03-05T10:38:13.904Z,3.47
2024-03-05T10:40:45.773Z,2.40
2024-03-05T10:43:16.966Z,2.40
2024-03-05T10:45:46.146Z,2.17
2024-03-05T10:48:16.308Z,2.10
2024-03-05T10:50:47.944Z,2.40
2024-03-05T10:53:17.603Z,2.03
2024-03-05T10:55:46.064Z,2.00
2024-03-05T10:58:14.922Z,1.90
2024-03-05T11:00:44.875Z,1.70
2024-03-05T11:03:14.263Z,1.70
2024-03-05T11:05:57.768Z,1.33
2024-03-05T11:08:30.326Z,1.50
2024-03-05T11:11:07.086Z,1.57
2024-03-05T11:13:37.169Z,1.40
2024-03-05T11:16:05.250Z,1.50
2024-03-05T11:18:36.684Z,1.03
2024-03-05T11:21:16.659Z,1.10
2024-03-05T11:23:54.011Z,1.30
2024-03-05T11:26:23.555Z,1.00
2024-03-05T11:28:54.357Z,1.10
2024-03-05T11:31:22.293Z,1.00
2024-03-05T11:34:04.848Z,1.13
2024-03-05T11:36:37.883Z,1.10
2024-03-05T11:39:05.026Z,0.87
2024-03-05T11:41:33.715Z,1.10
2024-03-05T11:44:01.218Z,1.30
2024-03-05T11:46:47.907Z,1.30
2024-03-05T11:49:16.157Z,1.10
2024-03-05T11:51:45.288Z,1.00
2024-03-05T11:54:19.383Z,0.67
2024-03-05T11:56:57.433Z,0.90
2024-03-05T11:59:40.871Z,0.90
2024-03-05T12:02:11.564Z,0.70
2024-03-05T12:04:42.812Z,0.60
2024-03-05T12:07:13.997Z,0.60
2024-03-05T12:09:41.743Z,0.70
2024-03-05T12:12:14.418Z,0.50
2024-03-05T12:14:55.894Z,0.70
2024-03-05T12:17:25.283Z,0.77
2024-03-05T12:20:09.548Z,0.60
2024-03-05T12:22:41.492Z,0.67
2024-03-05T12:25:09.441Z,0.50
2024-03-05T12:27:38.539Z,0.70
2024-03-05T12:30:07.724Z,0.60
2024-03-05T12:32:35.094Z,0.60
2024-03-05T12:35:03.218Z,0.77
2024-03-05T12:37:31.123Z,0.67
2024-03-05T12:40:00.645Z,0.53
2024-03-05T12:42:27.565Z,0.50
2024-03-05T12:45:18.554Z,0.80
2024-03-05T12:48:00.560Z,0.70
2024-03-05T12:50:30.492Z,0.80
2024-03-05T12:53:06.080Z,0.80
2024-03-05T12:55:34.018Z,0.80
2024-03-05T12:58:09.787Z,0.90
2024-03-05T13:00:37.618Z,0.90
2024-03-05T13:03:08.569Z,0.80
2024-03-05T13:05:36.893Z,1.00
2024-03-05T13:08:05.662Z,0.80
2024-03-05T13:10:33.689Z,1.10
2024-03-05T13:13:00.857Z,0.80
2024-03-05T13:15:27.858Z,0.80
2024-03-05T13:17:54.726Z,1.10
2024-03-05T13:20:21.613Z,1.03
2024-03-05T13:22:58.786Z,0.97
2024-03-05T13:25:29.794Z,0.90
2024-03-05T13:27:56.833Z,0.93
2024-03-05T13:30:27.757Z,1.20
2024-03-05T13:35:26.268Z,1.17
2024-03-05T13:37:53.118Z,0.90
2024-03-05T13:40:20.585Z,1.50
2024-03-05T13:42:49.475Z,1.20
2024-03-05T13:45:20.197Z,1.20
2024-03-05T13:47:47.261Z,1.10
2024-03-05T13:50:17.407Z,1.20
2024-03-05T13:52:46.345Z,1.40
2024-03-05T13:55:16.982Z,1.33
2024-03-05T13:57:43.744Z,1.27
2024-03-05T14:00:15.145Z,1.30
2024-03-05T14:02:41.979Z,1.20
2024-03-05T14:05:12.289Z,1.00
2024-03-05T14:07:39.619Z,1.40
2024-03-05T14:10:07.264Z,1.13
2024-03-05T14:12:36.396Z,1.30
2024-03-05T14:15:09.769Z,1.40
2024-03-05T14:17:38.070Z,1.47
2024-03-05T14:20:08.633Z,1.50
2024-03-05T14:22:39.850Z,1.60
2024-03-05T14:25:08.097Z,0.90
2024-03-05T14:27:34.970Z,0.73
2024-03-05T14:30:01.767Z,0.70
2024-03-05T14:32:28.612Z,0.87
2024-03-05T14:34:58.513Z,0.70
2024-03-05T14:37:25.679Z,0.70
2024-03-05T14:39:55.102Z,0.67
2024-03-05T14:42:21.935Z,0.60
2024-03-05T14:44:48.815Z,0.73
2024-03-05T14:47:15.966Z,0.50
2024-03-05T14:49:43.468Z,0.80
2024-03-05T14:52:10.685Z,0.80
2024-03-05T14:54:37.533Z,0.60
2024-03-05T14:57:04.676Z,0.53
2024-03-05T14:59:31.468Z,0.40
2024-03-05T15:01:58.405Z,0.40
2024-03-05T15:04:25.355Z,0.40
2024-03-05T15:06:54.427Z,0.57
2024-03-05T15:09:21.274Z,0.60
2024-03-05T15:11:48.375Z,0.70
2024-03-05T15:14:15.223Z,0.60
2024-03-05T15:16:42.162Z,0.60
2024-03-05T15:19:09.018Z,0.60
2024-03-05T15:21:35.825Z,0.50
2024-03-05T15:24:05.259Z,0.77
2024-03-05T15:26:32.552Z,0.60
2024-03-05T15:28:59.890Z,0.60
2024-03-05T15:31:27.029Z,0.70
2024-03-05T15:33:54.756Z,0.60
2024-03-05T15:36:21.613Z,0.60
2024-03-05T15:38:48.628Z,0.50
2024-03-05T15:41:16.432Z,1.40
2024-03-05T15:43:43.471Z,0.70
2024-03-05T15:46:10.395Z,0.90
2024-03-05T15:48:37.218Z,0.83
2024-03-05T15:51:04.284Z,0.80
2024-03-05T15:53:31.296Z,0.70
2024-03-05T15:56:13.346Z,0.97
2024-03-05T15:58:43.856Z,1.00
2024-03-05T16:01:11.703Z,1.17
2024-03-05T16:03:57.466Z,0.80
2024-03-05T16:06:31.353Z,1.00
2024-03-05T16:08:58.923Z,1.00
2024-03-05T16:11:26.422Z,0.80
2024-03-05T16:13:54.889Z,0.97
2024-03-05T16:16:23.616Z,1.30
2024-03-05T16:18:50.338Z,0.90
2024-03-05T16:21:17.581Z,0.70
2024-03-05T16:23:44.874Z,0.73
2024-03-05T16:26:11.774Z,1.03
2024-03-05T16:28:39.477Z,0.90
2024-03-05T16:31:06.455Z,1.10
2024-03-05T16:33:33.948Z,0.87
2024-03-05T16:36:00.869Z,0.77
2024-03-05T16:38:29.982Z,0.70
2024-03-05T16:40:57.860Z,1.10
2024-03-05T16:43:25.311Z,1.10
2024-03-05T16:45:53.455Z,1.00
2024-03-05T16:48:20.539Z,0.93
2024-03-05T16:50:47.417Z,1.43
2024-03-05T16:53:14.323Z,2.00
2024-03-05T16:55:43.013Z,4.37
2024-03-05T16:58:13.760Z,1.50
2024-03-05T17:00:53.478Z,1.10
2024-03-05T17:03:22.584Z,1.00
2024-03-05T17:05:53.713Z,1.00
2024-03-05T17:08:21.450Z,0.90
2024-03-05T17:10:49.496Z,0.60
2024-03-05T17:13:22.472Z,0.63
2024-03-05T17:15:55.979Z,0.87
2024-03-05T17:18:24.576Z,0.77
2024-03-05T17:20:52.148Z,0.73
2024-03-05T17:23:23.309Z,0.90
2024-03-05T17:25:52.680Z,1.10
2024-03-05T17:28:19.789Z,0.97
2024-03-05T17:30:47.190Z,1.10
2024-03-05T17:33:15.812Z,1.40
2024-03-05T17:35:43.501Z,1.80
2024-03-05T17:38:14.615Z,1.60
2024-03-05T17:40:42.101Z,1.10
2024-03-05T17:43:09.311Z,0.90
2024-03-05T17:45:36.290Z,1.10
2024-03-05T17:48:07.057Z,0.90
2024-03-05T17:50:37.845Z,1.10
2024-03-05T17:53:06.458Z,1.40
2024-03-05T17:55:35.877Z,1.00
2024-03-05T17:58:05.246Z,1.40
2024-03-05T18:00:42.585Z,1.30
2024-03-05T18:03:11.951Z,1.57
2024-03-05T18:05:39.852Z,1.70
2024-03-05T18:08:07.284Z,2.10
2024-03-05T18:10:35.864Z,2.63
2024-03-05T18:13:05.953Z,4.53
2024-03-05T18:15:33.162Z,4.33
2024-03-05T18:18:00.115Z,4.60
2024-03-05T18:20:29.856Z,4.70
2024-03-05T18:23:00.569Z,4.43
2024-03-05T18:25:34.917Z,4.43
2024-03-05T18:28:02.672Z,3.20
2024-03-05T18:30:29.650Z,3.30
2024-03-05T18:32:57.001Z,3.53
2024-03-05T18:35:24.804Z,3.37
2024-03-05T18:37:51.716Z,3.63
2024-03-05T18:40:18.749Z,4.03
2024-03-05T18:42:49.515Z,4.60
2024-03-05T18:45:17.812Z,4.33
2024-03-05T18:47:54.807Z,4.90
2024-03-05T18:50:30.298Z,4.50
2024-03-05T18:52:58.434Z,4.03
2024-03-05T18:55:25.748Z,4.27
2024-03-05T18:57:53.804Z,5.40
2024-03-05T19:00:20.823Z,4.53
2024-03-05T19:02:52.257Z,4.80
2024-03-05T19:05:20.201Z,4.17
2024-03-05T19:07:49.028Z,4.47
2024-03-05T19:10:17.879Z,5.30
2024-03-05T19:12:45.440Z,4.63
2024-03-05T19:15:18.520Z,4.87
2024-03-05T19:17:48.830Z,4.87
2024-03-05T19:20:16.247Z,4.30
2024-03-05T19:22:43.784Z,5.20
2024-03-05T19:25:12.814Z,5.57
2024-03-05T19:27:41.233Z,5.63
2024-03-05T19:30:11.680Z,6.00
2024-03-05T19:32:40.426Z,8.23
2024-03-05T19:35:11.405Z,8.97
2024-03-05T19:37:42.974Z,8.10
2024-03-05T19:40:18.132Z,7.53
2024-03-05T19:42:48.021Z,7.97
2024-03-05T19:45:15.224Z,7.50
2024-03-05T19:47:42.501Z,5.83
2024-03-05T19:50:14.520Z,6.77
2024-03-05T19:52:41.690Z,6.13
2024-03-05T19:55:09.438Z,7.00
2024-03-05T19:57:36.657Z,7.70
2024-03-05T20:00:13.072Z,7.00
2024-03-05T20:02:40.361Z,7.40
2024-03-05T20:05:07.617Z,8.27
2024-03-05T20:07:34.552Z,8.13
2024-03-05T20:10:02.243Z,8.50
2024-03-05T20:12:29.409Z,6.87
2024-03-05T20:14:56.403Z,4.37
2024-03-05T20:17:25.417Z,4.70
2024-03-05T20:19:54.084Z,6.13
2024-03-05T20:22:21.102Z,6.30
2024-03-05T20:24:48.555Z,7.20
2024-03-05T20:27:17.065Z,9.00
2024-03-05T20:29:43.938Z,8.53
2024-03-05T20:32:11.022Z,9.57
2024-03-05T20:34:39.393Z,10.63
2024-03-05T20:37:06.436Z,11.13
2024-03-05T20:39:33.236Z,10.30
2024-03-05T20:42:00.091Z,11.80
2024-03-05T20:44:26.914Z,10.47
2024-03-05T20:46:53.813Z,9.30
2024-03-05T20:49:20.667Z,7.13
2024-03-05T20:51:47.463Z,8.60
2024-03-05T20:54:14.463Z,10.20
2024-03-05T20:56:41.310Z,12.40
2024-03-05T20:59:08.147Z,10.57
2024-03-05T21:01:37.797Z,10.40
2024-03-05T21:04:06.184Z,9.63
2024-03-05T21:06:33.840Z,9.43
2024-03-05T21:09:01.241Z,10.00
2024-03-05T21:11:28.299Z,11.43
2024-03-05T21:13:56.204Z,10.40
2024-03-05T21:16:23.156Z,10.90
2024-03-05T21:18:51.219Z,11.20
2024-03-05T21:21:18.168Z,11.57
2024-03-05T21:23:45.150Z,10.93
2024-03-05T21:26:27.424Z,10.93
2024-03-05T21:29:01.193Z,10.07
2024-03-05T21:31:30.040Z,9.70
2024-03-05T21:33:56.962Z,9.87
2024-03-05T21:36:27.346Z,8.57
2024-03-05T21:38:54.555Z,8.47
2024-03-05T21:41:21.395Z,8.60
2024-03-05T21:43:48.370Z,8.37
2024-03-05T21:46:15.237Z,8.40
2024-03-05T21:48:44.859Z,7.97
2024-03-05T21:51:15.573Z,7.90
2024-03-05T21:53:43.876Z,7.67
2024-03-05T21:56:11.222Z,7.80
2024-03-05T21:58:39.751Z,6.97
2024-03-05T22:01:06.892Z,6.50
2024-03-05T22:03:33.760Z,6.50
2024-03-05T22:06:08.105Z,6.23
2024-03-05T22:08:39.245Z,5.60
2024-03-05T22:11:06.128Z,5.00
2024-03-05T22:13:33.059Z,5.60
2024-03-05T22:16:00.181Z,5.83
2024-03-05T22:18:27.797Z,4.80
2024-03-05T22:20:57.245Z,5.03
2024-03-05T22:23:24.216Z,9.00
2024-03-05T22:25:51.066Z,8.87
2024-03-05T22:28:18.095Z,8.20
2024-03-05T22:30:45.194Z,7.83
2024-03-05T22:33:12.237Z,7.00
2024-03-05T22:35:39.461Z,7.00
2024-03-05T22:38:06.739Z,6.50
2024-03-05T22:40:33.631Z,5.80
2024-03-05T22:43:00.444Z,5.50
2024-03-05T22:45:28.940Z,5.50
2024-03-05T22:47:55.873Z,6.10
2024-03-05T22:50:23.108Z,6.50
2024-03-05T22:52:52.054Z,5.50
2024-03-05T22:55:19.074Z,6.00
2024-03-05T22:57:45.971Z,5.93
2024-03-05T23:00:23.839Z,6.10
2024-03-05T23:02:55.000Z,6.23
2024-03-05T23:05:22.343Z,5.80
2024-03-05T23:07:49.320Z,6.20
2024-03-05T23:10:17.555Z,5.83
2024-03-05T23:12:45.120Z,5.30
2024-03-05T23:15:16.632Z,6.23
2024-03-05T23:17:44.429Z,6.27
2024-03-05T23:20:12.419Z,5.53
2024-03-05T23:22:40.292Z,5.50
2024-03-05T23:25:08.164Z,6.47
2024-03-05T23:27:35.569Z,7.20
2024-03-05T23:30:04.117Z,7.33
2024-03-05T23:32:32.359Z,8.70
2024-03-05T23:35:00.210Z,9.53
2024-03-05T23:37:27.188Z,7.57
2024-03-05T23:39:55.003Z,7.37
2024-03-05T23:42:21.930Z,6.53
2024-03-05T23:44:48.891Z,6.93
2024-03-05T23:47:16.314Z,7.30
2024-03-05T23:49:44.937Z,7.03
2024-03-05T23:52:11.852Z,7.00
2024-03-05T23:54:38.616Z,7.40
2024-03-05T23:57:05.483Z,7.90
2024-03-05T23:59:32.364Z,7.93
